Time;durP1;ratioP1;P1;durP2;ratioP2;P2;SDS_P1;SDS_P2;PMS_P1;PMS_P2;Temp;Humidity;BMP_temperature;BMP_pressure;BME280_temperature;BME280_humidity;BME280_pressure;Samples;Min_cycle;Max_cycle;Signal;HPM_P1;HPM_P2
2022/09/14 00:01:27;;;;;;;6.38;1.35;;;14.50;99.30;;;;;;5011800;28;20141;-46
2022/09/14 00:03:55;;;;;;;10.70;1.65;;;14.50;99.40;;;;;;5013415;28;20050;-45
2022/09/14 00:06:21;;;;;;;7.18;2.05;;;14.40;99.30;;;;;;5009979;28;20132;-45
2022/09/14 00:08:50;;;;;;;8.27;1.67;;;14.40;99.50;;;;;;5010686;28;20133;-46
2022/09/14 00:11:17;;;;;;;5.93;1.67;;;14.40;99.60;;;;;;5011768;28;20050;-47
2022/09/14 00:13:44;;;;;;;6.53;2.00;;;14.40;99.60;;;;;;5011065;28;20149;-44
2022/09/14 00:16:13;;;;;;;6.88;1.65;;;14.40;99.60;;;;;;5011344;28;20070;-46
2022/09/14 00:18:42;;;;;;;7.07;1.83;;;14.30;99.50;;;;;;5009182;28;20049;-46
2022/09/14 00:21:09;;;;;;;7.45;1.92;;;14.30;99.50;;;;;;5006004;28;20053;-39
2022/09/14 00:23:37;;;;;;;7.13;1.80;;;14.30;99.60;;;;;;5010517;28;20054;-49
2022/09/14 00:26:04;;;;;;;6.18;1.92;;;14.30;99.90;;;;;;5012254;28;20465;-44
2022/09/14 00:28:30;;;;;;;4.88;1.63;;;14.20;99.80;;;;;;5011856;28;20125;-45
2022/09/14 00:30:57;;;;;;;4.90;1.65;;;14.20;99.80;;;;;;5011793;28;20132;-46
2022/09/14 00:33:24;;;;;;;3.88;1.48;;;14.20;99.70;;;;;;5010659;28;20490;-41
2022/09/14 00:35:52;;;;;;;6.75;1.77;;;14.20;99.60;;;;;;5010486;28;20042;-45
2022/09/14 00:38:19;;;;;;;7.55;1.60;;;14.20;99.50;;;;;;5011164;28;20116;-45
2022/09/14 00:40:46;;;;;;;5.97;1.85;;;14.20;99.60;;;;;;5007953;28;20116;-44
2022/09/14 00:43:14;;;;;;;5.45;2.08;;;14.20;99.90;;;;;;5011995;28;20203;-46
2022/09/14 00:45:41;;;;;;;4.82;1.80;;;14.20;99.90;;;;;;5010341;28;20099;-47
2022/09/14 00:48:08;;;;;;;10.32;1.95;;;14.20;99.90;;;;;;5011979;28;20460;-46
2022/09/14 00:50:35;;;;;;;3.20;1.50;;;14.10;99.90;;;;;;4994444;28;20081;-47
2022/09/14 00:53:04;;;;;;;4.97;1.30;;;14.10;99.90;;;;;;5009799;28;20467;-41
2022/09/14 00:55:30;;;;;;;3.38;1.30;;;14.10;99.90;;;;;;5019501;28;20192;-43
2022/09/14 00:57:58;;;;;;;5.68;1.90;;;14.00;99.90;;;;;;5015218;28;20057;-44
2022/09/14 01:00:26;;;;;;;6.53;1.80;;;14.10;99.90;;;;;;5016551;28;20050;-47
2022/09/14 01:02:53;;;;;;;4.80;1.80;;;14.10;99.90;;;;;;5013751;28;20131;-48
2022/09/14 01:05:19;;;;;;;5.18;1.88;;;14.00;99.90;;;;;;5015717;28;20066;-44
2022/09/14 01:07:56;;;;;;;5.65;2.10;;;14.10;99.90;;;;;;5012579;28;20088;-47
2022/09/14 01:10:36;;;;;;;5.32;1.75;;;14.10;99.90;;;;;;5014836;28;20473;-45
2022/09/14 01:13:13;;;;;;;4.13;1.65;;;14.00;99.90;;;;;;5012908;28;20509;-45
2022/09/14 01:15:47;;;;;;;4.25;1.73;;;14.10;99.90;;;;;;5012382;28;20042;-47
2022/09/14 01:18:16;;;;;;;4.82;1.90;;;14.00;99.90;;;;;;5002353;28;20073;-43
2022/09/14 01:20:45;;;;;;;6.63;1.50;;;14.00;99.90;;;;;;5013411;28;20132;-46
2022/09/14 01:23:15;;;;;;;7.22;1.77;;;14.00;99.90;;;;;;5011406;28;20448;-44
2022/09/14 01:26:00;;;;;;;3.95;1.85;;;14.00;99.90;;;;;;5015261;28;20509;-42
2022/09/14 01:28:30;;;;;;;6.53;2.30;;;14.00;99.90;;;;;;5014354;28;20080;-46
2022/09/14 01:30:57;;;;;;;5.45;1.88;;;14.00;99.90;;;;;;5015718;28;20050;-45
2022/09/14 01:33:27;;;;;;;4.25;1.38;;;14.00;99.90;;;;;;5016002;28;20053;-47
2022/09/14 01:35:54;;;;;;;5.95;2.03;;;14.00;99.90;;;;;;5013696;28;20066;-45
2022/09/14 01:38:24;;;;;;;4.05;1.60;;;14.00;99.90;;;;;;5015075;28;20060;-45
2022/09/14 01:40:51;;;;;;;8.85;1.80;;;14.00;99.90;;;;;;5014772;28;20128;-44
2022/09/14 01:43:19;;;;;;;3.35;1.60;;;14.00;99.90;;;;;;5014862;28;20618;-46
2022/09/14 01:45:49;;;;;;;9.27;1.92;;;14.00;99.90;;;;;;5014299;28;20909;-44
2022/09/14 01:48:16;;;;;;;4.18;1.50;;;14.00;99.90;;;;;;5014780;28;20435;-45
2022/09/14 01:50:45;;;;;;;3.78;1.80;;;14.00;99.90;;;;;;5013601;28;20092;-47
2022/09/14 01:53:14;;;;;;;8.52;2.20;;;14.00;99.90;;;;;;5013581;28;20512;-46
2022/09/14 01:55:42;;;;;;;6.95;1.60;;;14.00;99.90;;;;;;5013313;28;20145;-45
2022/09/14 01:58:10;;;;;;;3.90;1.50;;;14.00;99.90;;;;;;5012792;28;20046;-44
2022/09/14 02:00:38;;;;;;;3.40;1.90;;;14.00;99.90;;;;;;5010192;28;20104;-45
2022/09/14 02:03:08;;;;;;;4.93;2.22;;;14.00;99.90;;;;;;5014400;28;20128;-44
2022/09/14 02:05:37;;;;;;;2.92;1.23;;;14.00;99.90;;;;;;5013220;28;20092;-47
2022/09/14 02:08:03;;;;;;;4.50;1.90;;;14.00;99.90;;;;;;5012648;28;20045;-43
2022/09/14 02:10:30;;;;;;;7.63;2.22;;;14.00;99.90;;;;;;5012561;28;20073;-47
2022/09/14 02:12:57;;;;;;;5.18;1.92;;;14.00;99.90;;;;;;5014109;28;20092;-45
2022/09/14 02:15:25;;;;;;;6.97;2.20;;;14.00;99.90;;;;;;5011632;28;20089;-46
2022/09/14 02:17:52;;;;;;;6.40;2.00;;;14.00;99.90;;;;;;5005875;28;20121;-46
2022/09/14 02:20:22;;;;;;;5.43;1.90;;;14.00;99.90;;;;;;5013674;28;20490;-47
2022/09/14 02:22:49;;;;;;;3.40;1.85;;;14.00;99.90;;;;;;5013611;28;20406;-48
2022/09/14 02:25:16;;;;;;;4.07;2.03;;;14.00;99.90;;;;;;5014343;28;20139;-44
2022/09/14 02:27:43;;;;;;;5.15;1.85;;;14.00;99.90;;;;;;5012250;28;20050;-46
2022/09/14 02:30:11;;;;;;;5.43;1.80;;;14.00;99.90;;;;;;5007381;28;20129;-44
2022/09/14 02:32:40;;;;;;;4.63;1.83;;;14.00;99.90;;;;;;5011400;28;20490;-47
2022/09/14 02:35:11;;;;;;;3.55;1.88;;;14.00;99.90;;;;;;5013626;28;20061;-47
2022/09/14 02:37:43;;;;;;;5.18;1.75;;;13.90;99.90;;;;;;5012262;28;20521;-45
2022/09/14 02:40:13;;;;;;;4.70;1.70;;;14.00;99.90;;;;;;5013448;28;20089;-45
2022/09/14 02:42:43;;;;;;;6.15;2.03;;;14.00;99.90;;;;;;5012525;28;20405;-38
2022/09/14 02:45:14;;;;;;;6.10;2.42;;;14.00;99.90;;;;;;5002383;28;20429;-47
2022/09/14 02:47:46;;;;;;;6.80;1.83;;;13.90;99.90;;;;;;5014245;28;20498;-47
2022/09/14 02:50:16;;;;;;;7.07;2.40;;;14.00;99.90;;;;;;5011526;28;20077;-45
2022/09/14 02:52:48;;;;;;;4.72;1.95;;;13.90;99.90;;;;;;5013898;28;20058;-47
2022/09/14 02:55:17;;;;;;;4.20;2.25;;;13.90;99.90;;;;;;5011220;28;20077;-46
2022/09/14 02:58:00;;;;;;;4.68;1.90;;;13.90;99.90;;;;;;5014255;28;20453;-43
2022/09/14 03:00:28;;;;;;;9.80;2.50;;;13.90;99.90;;;;;;5012361;28;20096;-46
2022/09/14 03:02:54;;;;;;;3.35;1.90;;;14.00;99.90;;;;;;5009858;28;20050;-45
2022/09/14 03:05:21;;;;;;;6.60;2.15;;;13.90;99.90;;;;;;5013703;28;20523;-45
2022/09/14 03:07:49;;;;;;;4.80;2.00;;;13.90;99.90;;;;;;5013076;28;20085;-44
2022/09/14 03:10:16;;;;;;;5.50;1.80;;;13.90;99.90;;;;;;5003404;28;20446;-46
2022/09/14 03:12:43;;;;;;;10.73;2.80;;;13.90;99.90;;;;;;5011085;28;20500;-46
2022/09/14 03:15:10;;;;;;;6.30;2.85;;;13.90;99.90;;;;;;5013679;28;20646;-47
2022/09/14 03:17:37;;;;;;;3.85;2.05;;;13.80;99.90;;;;;;5011607;28;20049;-47
2022/09/14 03:20:05;;;;;;;5.57;2.80;;;13.90;99.90;;;;;;5012458;28;20049;-47
2022/09/14 03:22:32;;;;;;;5.75;2.78;;;13.90;99.90;;;;;;4998992;28;20505;-43
2022/09/14 03:25:00;;;;;;;5.80;2.85;;;13.90;99.90;;;;;;5012926;28;20057;-47
2022/09/14 03:27:27;;;;;;;5.03;2.08;;;13.90;99.90;;;;;;5010412;28;20085;-46
2022/09/14 03:29:54;;;;;;;3.20;2.05;;;13.90;99.90;;;;;;5012733;28;20042;-44
2022/09/14 03:32:20;;;;;;;7.32;2.80;;;14.00;99.90;;;;;;5012250;28;20136;-47
2022/09/14 03:34:47;;;;;;;5.95;2.60;;;13.90;99.90;;;;;;5011790;28;20081;-50
2022/09/14 03:37:14;;;;;;;6.50;2.72;;;13.90;99.90;;;;;;5004235;28;20057;-48
2022/09/14 03:39:41;;;;;;;4.63;2.50;;;13.90;99.90;;;;;;5008623;28;20093;-42
2022/09/14 03:42:09;;;;;;;5.90;2.72;;;13.90;99.90;;;;;;5011138;28;20054;-45
2022/09/14 03:44:36;;;;;;;4.88;2.25;;;13.90;99.90;;;;;;5012006;28;20132;-44
2022/09/14 03:47:02;;;;;;;6.70;1.88;;;13.90;99.90;;;;;;5010358;28;20074;-47
2022/09/14 03:49:29;;;;;;;4.78;2.13;;;13.90;99.90;;;;;;5010125;28;20181;-43
2022/09/14 03:51:56;;;;;;;6.53;2.38;;;14.00;99.90;;;;;;5011035;28;20529;-47
2022/09/14 03:54:23;;;;;;;6.55;2.08;;;14.00;99.90;;;;;;5011434;28;20128;-46
2022/09/14 03:56:51;;;;;;;4.88;1.83;;;14.00;99.90;;;;;;5012676;28;20058;-44
2022/09/14 03:59:20;;;;;;;3.78;1.90;;;14.00;99.90;;;;;;5009744;28;21814;-46
2022/09/14 04:01:47;;;;;;;4.35;2.10;;;14.00;99.90;;;;;;5018199;28;20058;-46
2022/09/14 04:04:14;;;;;;;5.97;2.35;;;14.00;99.90;;;;;;5011810;28;20045;-46
2022/09/14 04:06:41;;;;;;;7.55;2.22;;;14.00;99.90;;;;;;5010064;28;20141;-49
2022/09/14 04:09:08;;;;;;;3.42;1.92;;;14.10;99.90;;;;;;5010955;28;20371;-47
2022/09/14 04:11:34;;;;;;;4.55;2.00;;;14.10;99.90;;;;;;5011611;28;20069;-47
2022/09/14 04:14:01;;;;;;;5.07;1.92;;;14.10;99.90;;;;;;5011621;28;20054;-46
2022/09/14 04:16:30;;;;;;;4.97;2.10;;;14.10;99.90;;;;;;5012584;28;20120;-47
2022/09/14 04:18:56;;;;;;;5.20;2.03;;;14.10;99.90;;;;;;5010059;28;20054;-44
2022/09/14 04:21:24;;;;;;;6.32;2.00;;;14.10;99.90;;;;;;5006802;28;20383;-45
2022/09/14 04:23:52;;;;;;;4.93;1.98;;;14.20;99.90;;;;;;5011616;28;20124;-45
2022/09/14 04:26:19;;;;;;;3.33;1.70;;;14.20;99.90;;;;;;5010728;28;20662;-47
2022/09/14 04:28:46;;;;;;;4.60;1.80;;;14.20;99.90;;;;;;5010701;28;20045;-49
2022/09/14 04:31:13;;;;;;;6.40;2.22;;;14.20;99.90;;;;;;5011692;28;20046;-45
2022/09/14 04:33:42;;;;;;;7.65;2.78;;;14.20;99.90;;;;;;5010287;28;20084;-44
2022/09/14 04:36:10;;;;;;;4.07;1.83;;;14.30;99.90;;;;;;5011181;28;20054;-44
2022/09/14 04:38:37;;;;;;;7.82;2.75;;;14.20;99.90;;;;;;5011945;28;20077;-46
2022/09/14 04:41:05;;;;;;;2.45;1.75;;;14.30;99.90;;;;;;5012670;28;20046;-46
2022/09/14 04:43:31;;;;;;;3.55;1.80;;;14.30;99.90;;;;;;5010393;28;20564;-47
2022/09/14 04:46:01;;;;;;;4.80;1.90;;;14.30;99.90;;;;;;5010237;28;20100;-45
2022/09/14 04:48:32;;;;;;;6.63;1.92;;;14.30;99.90;;;;;;5008720;28;20046;-44
2022/09/14 04:51:02;;;;;;;5.07;2.13;;;14.30;99.90;;;;;;5012634;28;20580;-45
2022/09/14 04:53:29;;;;;;;12.38;2.60;;;14.30;99.90;;;;;;5012436;28;20425;-50
2022/09/14 04:56:00;;;;;;;5.60;2.00;;;14.30;99.90;;;;;;5012639;28;20097;-44
2022/09/14 04:58:27;;;;;;;3.70;1.60;;;14.40;99.90;;;;;;5012645;28;20050;-42
2022/09/14 05:00:54;;;;;;;3.90;1.80;;;14.40;99.90;;;;;;5011678;28;20050;-47
2022/09/14 05:03:21;;;;;;;4.97;1.70;;;14.40;99.90;;;;;;5007268;28;20108;-44
2022/09/14 05:05:48;;;;;;;3.97;1.98;;;14.40;99.90;;;;;;5008463;28;20545;-48
2022/09/14 05:08:16;;;;;;;7.10;1.83;;;14.40;99.90;;;;;;5002144;28;20128;-43
2022/09/14 05:10:43;;;;;;;5.40;2.25;;;14.40;99.90;;;;;;5007944;28;20054;-48
2022/09/14 05:13:10;;;;;;;6.35;2.25;;;14.40;99.90;;;;;;4999240;28;20475;-47
2022/09/14 05:15:36;;;;;;;5.55;2.45;;;14.40;99.90;;;;;;4997249;28;20077;-47
2022/09/14 05:18:03;;;;;;;5.68;2.05;;;14.40;99.90;;;;;;5004195;28;20041;-47
2022/09/14 05:20:30;;;;;;;5.57;2.22;;;14.40;99.90;;;;;;4998222;28;20442;-40
2022/09/14 05:22:57;;;;;;;6.57;1.85;;;14.40;99.90;;;;;;5002450;28;20058;-43
2022/09/14 05:25:25;;;;;;;5.97;1.90;;;14.40;99.90;;;;;;5000870;28;20512;-46
2022/09/14 05:27:52;;;;;;;5.90;2.28;;;14.40;99.90;;;;;;4996248;28;20058;-47
2022/09/14 05:30:19;;;;;;;6.82;2.53;;;14.40;99.90;;;;;;5003755;28;20125;-39
2022/09/14 05:32:46;;;;;;;6.68;2.13;;;14.50;99.90;;;;;;5005156;28;20096;-46
2022/09/14 05:35:12;;;;;;;6.30;1.92;;;14.50;99.90;;;;;;5007548;28;20125;-44
2022/09/14 05:37:39;;;;;;;4.45;2.10;;;14.50;99.90;;;;;;5008316;28;20506;-50
2022/09/14 05:40:07;;;;;;;7.75;2.20;;;14.50;99.90;;;;;;5011675;28;20085;-42
2022/09/14 05:42:35;;;;;;;5.18;1.98;;;14.50;99.90;;;;;;5013912;28;20078;-45
2022/09/14 05:45:02;;;;;;;7.07;2.30;;;14.50;99.90;;;;;;5016210;28;20081;-47
2022/09/14 05:47:29;;;;;;;5.80;2.50;;;14.50;99.90;;;;;;5013705;28;20054;-46
2022/09/14 05:49:56;;;;;;;5.82;1.88;;;14.50;99.90;;;;;;5011918;28;20078;-44
2022/09/14 05:52:23;;;;;;;7.20;2.33;;;14.50;99.90;;;;;;5012342;28;20060;-46
2022/09/14 05:54:50;;;;;;;17.45;2.92;;;14.60;99.90;;;;;;5013151;28;20056;-46
2022/09/14 05:57:16;;;;;;;9.40;2.90;;;14.60;99.90;;;;;;5012834;28;20137;-45
2022/09/14 05:59:44;;;;;;;4.68;2.33;;;14.60;99.90;;;;;;5011790;28;20049;-46
2022/09/14 06:02:11;;;;;;;6.07;2.38;;;14.60;99.90;;;;;;5011953;28;20073;-46
2022/09/14 06:04:38;;;;;;;9.43;3.05;;;14.70;99.90;;;;;;5012884;28;20132;-42
2022/09/14 06:07:05;;;;;;;7.78;2.60;;;14.80;99.90;;;;;;5015372;28;20486;-44
2022/09/14 06:09:32;;;;;;;7.55;2.60;;;14.70;99.90;;;;;;5015351;28;20137;-48
2022/09/14 06:11:58;;;;;;;4.97;2.60;;;14.70;99.90;;;;;;5013848;28;20057;-45
2022/09/14 06:14:25;;;;;;;6.38;2.10;;;14.80;99.90;;;;;;5013516;28;20141;-45
2022/09/14 06:16:53;;;;;;;8.30;3.40;;;14.80;99.90;;;;;;5015306;28;20539;-49
2022/09/14 06:19:20;;;;;;;6.43;2.20;;;14.80;99.90;;;;;;5013558;28;20084;-46
2022/09/14 06:21:47;;;;;;;11.90;3.10;;;14.80;99.90;;;;;;5003787;28;20086;-47
2022/09/14 06:24:14;;;;;;;7.00;2.88;;;14.90;99.90;;;;;;4995752;28;20101;-49
2022/09/14 06:26:40;;;;;;;4.55;2.13;;;14.90;99.90;;;;;;4995679;28;20483;-46
2022/09/14 06:29:07;;;;;;;9.05;3.20;;;15.00;99.90;;;;;;4995753;28;20096;-47
2022/09/14 06:31:34;;;;;;;9.30;3.55;;;15.00;99.90;;;;;;4995316;28;20054;-47
2022/09/14 06:34:02;;;;;;;8.55;3.70;;;15.00;99.90;;;;;;4995302;28;20089;-45
2022/09/14 06:36:29;;;;;;;6.50;3.28;;;15.10;99.90;;;;;;5003618;28;20105;-46
2022/09/14 06:38:56;;;;;;;6.57;2.85;;;15.10;99.90;;;;;;5015063;28;20113;-47
2022/09/14 06:41:25;;;;;;;11.18;3.60;;;15.20;99.90;;;;;;5014930;28;20046;-46
2022/09/14 06:43:54;;;;;;;9.85;3.38;;;15.20;99.90;;;;;;5014021;28;20418;-44
2022/09/14 06:46:22;;;;;;;7.68;3.40;;;15.30;99.90;;;;;;5014723;28;20053;-45
2022/09/14 06:48:50;;;;;;;7.32;3.55;;;15.30;99.90;;;;;;5014688;28;20046;-46
2022/09/14 06:51:19;;;;;;;7.35;3.35;;;15.40;99.90;;;;;;5013713;28;20478;-48
2022/09/14 06:53:47;;;;;;;10.57;3.53;;;15.50;99.90;;;;;;5013727;28;20136;-47
2022/09/14 06:56:13;;;;;;;10.43;3.50;;;15.50;99.90;;;;;;5013631;28;20149;-48
2022/09/14 06:58:40;;;;;;;12.95;3.45;;;15.50;99.90;;;;;;5013453;28;20104;-47
2022/09/14 07:01:08;;;;;;;8.60;3.88;;;15.60;99.90;;;;;;5014556;28;20104;-42
2022/09/14 07:03:37;;;;;;;9.18;3.25;;;15.60;99.90;;;;;;5014455;28;20089;-47
2022/09/14 07:06:05;;;;;;;11.80;3.15;;;15.60;99.90;;;;;;5014276;28;20085;-50
2022/09/14 07:08:33;;;;;;;13.35;3.20;;;15.70;99.90;;;;;;5012472;28;20119;-47
2022/09/14 07:11:00;;;;;;;8.80;3.05;;;15.70;99.90;;;;;;5026955;28;20054;-43
2022/09/14 07:13:27;;;;;;;11.23;3.20;;;15.80;99.90;;;;;;5014332;28;20104;-37
2022/09/14 07:15:54;;;;;;;6.88;2.17;;;15.80;99.90;;;;;;5013215;28;20046;-47
2022/09/14 07:18:22;;;;;;;7.20;2.47;;;15.80;99.90;;;;;;5013109;28;20505;-46
2022/09/14 07:20:48;;;;;;;12.23;3.13;;;15.90;99.90;;;;;;5014219;28;20052;-45
2022/09/14 07:23:15;;;;;;;8.85;2.72;;;15.90;99.90;;;;;;5014273;28;20052;-47
2022/09/14 07:25:43;;;;;;;12.45;3.20;;;16.00;99.90;;;;;;5013055;28;20529;-49
2022/09/14 07:28:10;;;;;;;7.45;2.67;;;16.00;99.90;;;;;;5014137;28;20177;-48
2022/09/14 07:30:37;;;;;;;6.13;2.90;;;16.10;99.90;;;;;;5013858;28;20077;-45
2022/09/14 07:33:04;;;;;;;7.13;3.08;;;16.10;99.90;;;;;;5013779;28;20049;-44
2022/09/14 07:35:31;;;;;;;8.60;3.22;;;16.10;99.90;;;;;;5013858;28;20092;-43
2022/09/14 07:37:58;;;;;;;10.27;3.38;;;16.20;99.90;;;;;;5012830;28;20049;-48
2022/09/14 07:40:25;;;;;;;8.13;3.05;;;16.20;99.90;;;;;;5013799;28;20050;-46
2022/09/14 07:42:54;;;;;;;8.80;3.03;;;16.30;99.90;;;;;;5013715;28;20058;-50
2022/09/14 07:45:21;;;;;;;10.05;3.70;;;16.40;99.90;;;;;;5012528;28;20042;-48
2022/09/14 07:47:48;;;;;;;12.55;3.28;;;16.40;99.90;;;;;;5012480;28;20092;-50
2022/09/14 07:50:14;;;;;;;8.02;2.67;;;16.50;99.90;;;;;;5013735;28;20050;-44
2022/09/14 07:52:41;;;;;;;8.15;2.20;;;16.50;99.90;;;;;;5013518;28;20092;-49
2022/09/14 07:55:11;;;;;;;9.20;2.42;;;16.60;99.90;;;;;;5012577;28;20096;-47
2022/09/14 07:57:38;;;;;;;5.38;2.20;;;16.60;99.90;;;;;;5009197;28;20060;-44
2022/09/14 08:00:09;;;;;;;4.25;1.90;;;16.60;99.90;;;;;;4993843;28;20129;-45
2022/09/14 08:02:36;;;;;;;8.70;2.20;;;16.70;99.90;;;;;;4993859;28;20063;-50
2022/09/14 08:05:02;;;;;;;10.05;2.38;;;16.80;99.90;;;;;;4993909;28;20093;-45
2022/09/14 08:07:29;;;;;;;11.60;2.72;;;16.90;99.90;;;;;;4992900;28;20137;-45
2022/09/14 08:09:56;;;;;;;8.85;1.90;;;17.00;99.90;;;;;;4993745;28;20082;-46
2022/09/14 08:12:23;;;;;;;6.45;2.00;;;17.00;99.90;;;;;;4993714;28;20082;-45
2022/09/14 08:14:52;;;;;;;5.97;1.80;;;17.10;99.90;;;;;;4993574;28;20450;-47
2022/09/14 08:17:22;;;;;;;6.25;1.92;;;17.20;99.90;;;;;;5005687;28;20057;-46
2022/09/14 08:19:50;;;;;;;11.20;3.13;;;17.20;99.90;;;;;;5013145;28;20060;-45
2022/09/14 08:22:17;;;;;;;7.40;1.95;;;17.30;99.90;;;;;;4997919;28;20097;-46
2022/09/14 08:24:43;;;;;;;7.78;1.90;;;17.30;99.90;;;;;;4993244;28;20537;-44
2022/09/14 08:27:10;;;;;;;5.50;1.63;;;17.40;99.90;;;;;;4992153;28;20112;-45
2022/09/14 08:29:38;;;;;;;7.32;1.80;;;17.50;99.90;;;;;;5010407;28;20506;-47
2022/09/14 08:32:05;;;;;;;8.55;2.03;;;17.50;99.90;;;;;;5013260;28;20124;-48
2022/09/14 08:34:33;;;;;;;8.43;2.08;;;17.60;99.90;;;;;;5013113;28;20116;-47
2022/09/14 08:37:00;;;;;;;8.10;1.60;;;17.80;99.90;;;;;;5012289;28;20449;-43
2022/09/14 08:39:27;;;;;;;5.22;1.55;;;17.90;99.90;;;;;;5013007;28;20151;-47
2022/09/14 08:41:54;;;;;;;9.10;1.50;;;18.00;99.90;;;;;;5017817;28;20058;-45
2022/09/14 08:44:24;;;;;;;5.32;1.30;;;18.10;99.90;;;;;;5013059;28;20406;-45
2022/09/14 08:46:53;;;;;;;8.93;0.93;;;18.30;99.90;;;;;;5011934;28;20073;-44
2022/09/14 08:49:21;;;;;;;11.75;1.10;;;18.40;99.90;;;;;;5012080;28;20155;-48
2022/09/14 08:51:50;;;;;;;6.50;1.08;;;18.40;99.90;;;;;;5011652;28;20482;-46
2022/09/14 08:54:17;;;;;;;6.63;0.90;;;18.50;99.90;;;;;;5011150;28;20070;-43
2022/09/14 08:56:45;;;;;;;6.68;1.30;;;18.50;99.90;;;;;;5012516;28;20057;-48
2022/09/14 08:59:25;;;;;;;6.30;0.80;;;18.60;99.90;;;;;;5012923;28;20062;-46
2022/09/14 09:01:57;;;;;;;3.47;0.80;;;18.70;99.90;;;;;;5012861;28;20096;-46
2022/09/14 09:04:30;;;;;;;7.32;1.20;;;18.80;99.90;;;;;;5011947;28;20153;-46
2022/09/14 09:07:02;;;;;;;7.90;1.10;;;18.80;99.90;;;;;;5012698;28;20046;-47
2022/09/14 09:09:33;;;;;;;8.82;1.08;;;18.90;99.90;;;;;;5012703;28;20450;-48
2022/09/14 09:12:00;;;;;;;6.75;0.70;;;19.00;99.60;;;;;;5011803;28;20108;-46
2022/09/14 09:14:29;;;;;;;6.00;1.02;;;18.90;99.30;;;;;;5011820;28;20129;-49
2022/09/14 09:16:57;;;;;;;12.52;1.35;;;18.90;99.00;;;;;;5016568;28;20089;-48
2022/09/14 09:19:27;;;;;;;4.97;0.65;;;19.00;98.90;;;;;;5015516;28;20548;-51
2022/09/14 09:21:53;;;;;;;6.43;0.90;;;19.00;98.60;;;;;;5004312;28;20051;-46
2022/09/14 09:24:26;;;;;;;7.88;0.93;;;19.00;98.50;;;;;;4996479;28;20380;-49
2022/09/14 09:26:53;;;;;;;8.80;1.10;;;19.10;98.30;;;;;;4996948;28;20153;-48
2022/09/14 09:29:20;;;;;;;8.93;1.00;;;19.10;98.20;;;;;;4996826;28;20096;-47
2022/09/14 09:31:50;;;;;;;10.20;1.23;;;19.30;98.00;;;;;;4996526;28;20383;-49
2022/09/14 09:34:17;;;;;;;5.75;0.98;;;19.40;98.00;;;;;;4996380;28;20109;-49
2022/09/14 09:36:46;;;;;;;9.32;0.90;;;19.50;97.80;;;;;;4995454;28;20101;-43
2022/09/14 09:39:13;;;;;;;7.53;1.20;;;19.70;97.00;;;;;;5013802;28;20120;-46
2022/09/14 09:41:45;;;;;;;7.78;0.98;;;19.70;97.00;;;;;;5015328;28;20141;-48
2022/09/14 09:44:12;;;;;;;11.00;1.23;;;19.70;96.60;;;;;;5015190;28;20050;-48
2022/09/14 09:46:40;;;;;;;8.90;0.90;;;19.80;96.70;;;;;;5014847;28;20085;-47
2022/09/14 09:49:16;;;;;;;6.45;1.08;;;19.90;96.50;;;;;;5015821;28;20085;-44
2022/09/14 09:51:42;;;;;;;5.80;0.98;;;20.00;96.30;;;;;;5015560;28;20050;-46
2022/09/14 09:54:22;;;;;;;7.10;1.10;;;20.10;96.00;;;;;;5016179;28;20113;-44
2022/09/14 09:56:53;;;;;;;7.93;0.80;;;20.30;96.20;;;;;;5014594;28;20050;-48
2022/09/14 09:59:23;;;;;;;4.65;0.77;;;20.40;95.20;;;;;;5015786;28;20085;-50
2022/09/14 10:01:51;;;;;;;8.25;1.02;;;20.60;95.10;;;;;;5015534;28;20049;-49
2022/09/14 10:04:18;;;;;;;9.35;1.17;;;20.80;94.60;;;;;;5013220;28;20096;-50
2022/09/14 10:06:46;;;;;;;2.70;0.77;;;20.90;94.10;;;;;;5024809;28;20061;-48
2022/09/14 10:09:14;;;;;;;4.22;0.80;;;20.80;93.50;;;;;;5014592;28;20081;-46
2022/09/14 10:11:41;;;;;;;5.68;0.85;;;20.70;93.00;;;;;;5015359;28;20042;-45
2022/09/14 10:14:22;;;;;;;4.25;0.63;;;20.60;92.60;;;;;;5014498;28;20057;-46
2022/09/14 10:16:49;;;;;;;7.65;1.15;;;20.70;92.90;;;;;;5013994;28;20050;-48
2022/09/14 10:19:18;;;;;;;8.82;0.82;;;20.70;92.90;;;;;;5014535;28;20052;-44
2022/09/14 10:22:19;;;;;;;7.30;0.80;;;20.70;93.00;;;;;;5015380;28;20053;-43
2022/09/14 10:24:54;;;;;;;8.23;1.38;;;20.60;92.90;;;;;;5013989;28;20465;-47
2022/09/14 10:27:39;;;;;;;6.22;1.02;;;20.60;93.10;;;;;;5012687;28;20064;-45
2022/09/14 10:30:12;;;;;;;9.05;1.25;;;20.70;93.00;;;;;;5013277;28;20500;-47
2022/09/14 10:32:38;;;;;;;8.75;1.13;;;20.70;93.10;;;;;;5015032;28;20131;-48
2022/09/14 10:35:12;;;;;;;7.43;1.30;;;20.80;93.10;;;;;;5015042;28;20104;-44
2022/09/14 10:37:43;;;;;;;5.43;0.82;;;20.80;92.50;;;;;;5014965;28;20421;-45
2022/09/14 10:40:15;;;;;;;7.32;1.10;;;20.70;92.60;;;;;;5014273;28;20054;-45
2022/09/14 10:42:47;;;;;;;8.32;1.13;;;20.70;92.10;;;;;;5015009;28;20050;-48
2022/09/14 10:45:18;;;;;;;5.93;1.00;;;20.80;92.30;;;;;;5014817;28;20053;-45
2022/09/14 10:48:02;;;;;;;5.38;1.38;;;21.00;91.80;;;;;;5014923;28;20089;-43
2022/09/14 10:50:39;;;;;;;5.07;1.30;;;21.10;91.30;;;;;;5014611;28;20050;-45
2022/09/14 10:53:11;;;;;;;8.48;1.27;;;21.20;91.00;;;;;;4995233;28;20196;-46
2022/09/14 10:55:42;;;;;;;4.05;1.10;;;21.30;91.00;;;;;;4998439;28;20501;-47
2022/09/14 10:58:23;;;;;;;5.35;1.05;;;21.50;91.00;;;;;;5014676;28;20058;-46
2022/09/14 11:00:56;;;;;;;7.07;1.02;;;21.70;90.20;;;;;;5013411;28;20042;-50
2022/09/14 11:03:29;;;;;;;3.83;1.10;;;21.70;90.10;;;;;;5014651;28;20085;-49
2022/09/14 11:06:01;;;;;;;7.93;0.90;;;21.80;89.20;;;;;;5013578;28;20096;-49
2022/09/14 11:08:31;;;;;;;5.63;1.00;;;21.80;90.00;;;;;;5014774;28;20132;-49
2022/09/14 11:11:16;;;;;;;5.20;1.38;;;21.80;89.10;;;;;;5014280;28;20061;-49
2022/09/14 11:13:52;;;;;;;4.72;0.82;;;21.70;88.50;;;;;;5014706;28;20042;-46
2022/09/14 11:16:41;;;;;;;5.90;0.88;;;21.60;89.40;;;;;;5013396;28;20054;-46
2022/09/14 11:19:10;;;;;;;3.97;0.80;;;21.60;89.40;;;;;;5014442;28;20437;-44
2022/09/14 11:21:45;;;;;;;5.30;0.75;;;21.50;89.50;;;;;;5004345;28;20039;-48
2022/09/14 11:24:17;;;;;;;6.72;1.13;;;21.60;89.70;;;;;;4993530;28;20062;-48
2022/09/14 11:26:55;;;;;;;4.35;0.75;;;21.70;88.80;;;;;;5004233;28;20137;-46
2022/09/14 11:29:24;;;;;;;9.43;1.10;;;21.80;89.20;;;;;;5013149;28;20050;-49
2022/09/14 11:31:54;;;;;;;5.13;1.05;;;21.90;88.70;;;;;;5013939;28;20050;-47
2022/09/14 11:34:22;;;;;;;6.63;1.05;;;22.10;87.70;;;;;;5013713;28;20081;-46
2022/09/14 11:36:50;;;;;;;6.47;0.82;;;22.30;87.30;;;;;;5013108;28;20137;-45
2022/09/14 11:39:19;;;;;;;4.88;0.85;;;22.50;87.20;;;;;;5013613;28;20054;-48
2022/09/14 11:41:48;;;;;;;6.53;1.00;;;22.80;86.10;;;;;;5012786;28;20064;-50
2022/09/14 11:44:29;;;;;;;4.03;0.80;;;22.90;82.80;;;;;;5012817;28;20333;-48
2022/09/14 11:47:00;;;;;;;3.55;0.70;;;23.00;83.00;;;;;;5013659;28;20092;-50
2022/09/14 11:49:27;;;;;;;;;;;23.20;81.20;;;;;;5014221;28;20049;-48
2022/09/14 11:51:55;;;;;;;6.25;1.25;;;23.00;81.30;;;;;;5011632;28;19921;-47
2022/09/14 11:54:23;;;;;;;5.70;1.00;;;23.20;81.20;;;;;;5012794;28;20457;-49
2022/09/14 11:56:52;;;;;;;5.40;1.02;;;23.30;79.50;;;;;;5012190;28;20085;-44
2022/09/14 11:59:34;;;;;;;3.53;1.00;;;23.50;79.60;;;;;;5013383;28;20057;-47
2022/09/14 12:02:49;;;;;;;6.75;1.00;;;23.50;79.50;;;;;;5012470;28;20564;-47
2022/09/14 12:05:32;;;;;;;6.63;0.93;;;23.60;79.10;;;;;;5012151;28;20085;-46
2022/09/14 12:08:00;;;;;;;4.95;1.13;;;23.50;79.40;;;;;;5013140;28;20050;-50
2022/09/14 12:10:27;;;;;;;6.95;1.13;;;23.50;79.80;;;;;;5013360;28;20120;-47
2022/09/14 12:12:54;;;;;;;4.50;0.85;;;23.50;79.90;;;;;;5012351;28;20081;-47
2022/09/14 12:15:22;;;;;;;7.35;1.10;;;23.40;80.30;;;;;;5013402;28;20089;-48
2022/09/14 12:17:50;;;;;;;4.45;0.93;;;23.40;79.50;;;;;;5013151;28;20053;-46
2022/09/14 12:20:42;;;;;;;3.97;0.88;;;23.40;80.20;;;;;;5012020;28;20061;-45
2022/09/14 12:23:32;;;;;;;4.13;0.70;;;23.30;80.60;;;;;;5013191;28;20058;-45
2022/09/14 12:26:08;;;;;;;4.78;0.88;;;23.30;81.60;;;;;;5013337;28;20454;-51
2022/09/14 12:28:46;;;;;;;4.43;1.00;;;23.30;82.20;;;;;;5005945;28;20119;-47
2022/09/14 12:31:29;;;;;;;8.18;0.98;;;23.30;80.90;;;;;;5012140;28;20072;-50
2022/09/14 12:34:20;;;;;;;4.80;0.93;;;23.30;80.80;;;;;;5012920;28;20129;-51
2022/09/14 12:37:17;;;;;;;7.82;0.98;;;23.30;81.80;;;;;;5001951;28;20050;-46
2022/09/14 12:40:21;;;;;;;5.68;0.90;;;23.30;81.40;;;;;;5005140;28;20121;-48
2022/09/14 12:42:48;;;;;;;4.47;1.00;;;23.30;81.10;;;;;;5005104;28;20158;-47
2022/09/14 12:45:50;;;;;;;6.72;1.27;;;23.30;81.20;;;;;;5011653;28;20042;-50
2022/09/14 12:48:31;;;;;;;;;;;23.30;81.50;;;;;;5011638;28;20049;-47
2022/09/14 12:50:58;;;;;;;11.57;1.33;;;23.30;82.70;;;;;;5001214;28;20416;-49
2022/09/14 12:53:28;;;;;;;8.50;1.17;;;23.50;81.50;;;;;;5014018;28;20570;-44
2022/09/14 12:56:01;;;;;;;6.93;1.33;;;23.80;80.50;;;;;;5015130;28;20061;-49
2022/09/14 12:58:41;;;;;;;6.90;1.10;;;23.90;78.30;;;;;;5014770;28;20050;-48